Terminal Aerodrome Forecast
Issued by NWS

Home | Current Version | Previous Version | Graphics & Text | Print | Product List | Glossary On
Versions: 1 2 3 4 5 6 7 8 9 10 11 12 13 14 15 16 17 18 19 20 21 22 23 24 25
707
FTUS43 KABR 281415 AAB
TAFATY
TAF AMD
KATY 281415Z 2814/2912 06008KT 6SM -RA BR OVC006
     FM281700 02006KT P6SM VCTS OVC008CB
     FM282000 36008KT P6SM VCTS OVC025CB
     FM290000 33007KT P6SM BKN040=

USA.gov is the U.S. government's official web portal to all federal, state and local government web resources and services.